sensor_id;sensor_type;location;lat;lon;timestamp;P1;durP1;ratioP1;P2;durP2;ratioP2
34035;SDS011;63481;52.588;22.472;2023-07-29T00:00:08;6.70;;;2.30;;
34035;SDS011;63481;52.588;22.472;2023-07-29T00:01:06;5.70;;;2.30;;
34035;SDS011;63481;52.588;22.472;2023-07-29T00:01:40;3.90;;;2.10;;
34035;SDS011;63481;52.588;22.472;2023-07-29T00:02:12;5.80;;;2.70;;
34035;SDS011;63481;52.588;22.472;2023-07-29T00:02:44;5.80;;;2.30;;
34035;SDS011;63481;52.588;22.472;2023-07-29T00:03:16;4.90;;;2.20;;
34035;SDS011;63481;52.588;22.472;2023-07-29T00:03:48;9.50;;;3.20;;
34035;SDS011;63481;52.588;22.472;2023-07-29T00:04:20;5.90;;;2.80;;
34035;SDS011;63481;52.588;22.472;2023-07-29T00:04:51;5.50;;;2.70;;
34035;SDS011;63481;52.588;22.472;2023-07-29T00:05:23;5.60;;;3.00;;
34035;SDS011;63481;52.588;22.472;2023-07-29T00:05:55;4.80;;;2.40;;
34035;SDS011;63481;52.588;22.472;2023-07-29T00:06:27;5.20;;;2.50;;
34035;SDS011;63481;52.588;22.472;2023-07-29T00:06:59;4.20;;;2.30;;
34035;SDS011;63481;52.588;22.472;2023-07-29T00:07:31;6.50;;;2.90;;
34035;SDS011;63481;52.588;22.472;2023-07-29T00:08:03;4.00;;;2.10;;
34035;SDS011;63481;52.588;22.472;2023-07-29T00:08:35;4.90;;;2.20;;
34035;SDS011;63481;52.588;22.472;2023-07-29T00:09:06;5.50;;;2.80;;
34035;SDS011;63481;52.588;22.472;2023-07-29T00:09:38;6.00;;;2.40;;
34035;SDS011;63481;52.588;22.472;2023-07-29T00:10:10;5.10;;;2.40;;
34035;SDS011;63481;52.588;22.472;2023-07-29T00:10:42;6.20;;;2.60;;
34035;SDS011;63481;52.588;22.472;2023-07-29T00:11:13;6.40;;;3.00;;
34035;SDS011;63481;52.588;22.472;2023-07-29T00:11:45;3.10;;;2.10;;
34035;SDS011;63481;52.588;22.472;2023-07-29T00:12:17;5.50;;;2.80;;
34035;SDS011;63481;52.588;22.472;2023-07-29T00:12:49;4.30;;;2.10;;
34035;SDS011;63481;52.588;22.472;2023-07-29T00:13:21;4.60;;;2.30;;
34035;SDS011;63481;52.588;22.472;2023-07-29T00:13:53;4.30;;;2.30;;
34035;SDS011;63481;52.588;22.472;2023-07-29T00:14:24;4.90;;;2.30;;
34035;SDS011;63481;52.588;22.472;2023-07-29T00:14:56;4.80;;;2.80;;
34035;SDS011;63481;52.588;22.472;2023-07-29T00:15:28;5.20;;;2.80;;
34035;SDS011;63481;52.588;22.472;2023-07-29T00:16:00;5.00;;;2.50;;
34035;SDS011;63481;52.588;22.472;2023-07-29T00:16:31;4.30;;;2.50;;
34035;SDS011;63481;52.588;22.472;2023-07-29T00:17:03;5.50;;;2.40;;
34035;SDS011;63481;52.588;22.472;2023-07-29T00:17:37;5.00;;;2.70;;
34035;SDS011;63481;52.588;22.472;2023-07-29T00:18:08;5.50;;;2.80;;
34035;SDS011;63481;52.588;22.472;2023-07-29T00:18:40;5.20;;;2.20;;
34035;SDS011;63481;52.588;22.472;2023-07-29T00:19:12;7.70;;;2.60;;
34035;SDS011;63481;52.588;22.472;2023-07-29T00:19:44;4.10;;;2.20;;
34035;SDS011;63481;52.588;22.472;2023-07-29T00:20:17;6.50;;;3.40;;
34035;SDS011;63481;52.588;22.472;2023-07-29T00:20:49;4.90;;;2.80;;
34035;SDS011;63481;52.588;22.472;2023-07-29T00:21:21;7.60;;;2.80;;
34035;SDS011;63481;52.588;22.472;2023-07-29T00:21:53;7.20;;;2.50;;
34035;SDS011;63481;52.588;22.472;2023-07-29T00:22:25;6.00;;;2.80;;
34035;SDS011;63481;52.588;22.472;2023-07-29T00:22:57;5.10;;;2.70;;
34035;SDS011;63481;52.588;22.472;2023-07-29T00:23:29;5.20;;;2.60;;
34035;SDS011;63481;52.588;22.472;2023-07-29T00:24:01;4.90;;;2.40;;
34035;SDS011;63481;52.588;22.472;2023-07-29T00:24:33;4.90;;;2.20;;
34035;SDS011;63481;52.588;22.472;2023-07-29T00:25:05;4.10;;;2.20;;
34035;SDS011;63481;52.588;22.472;2023-07-29T00:25:37;6.00;;;2.80;;
34035;SDS011;63481;52.588;22.472;2023-07-29T00:26:09;4.20;;;2.30;;
34035;SDS011;63481;52.588;22.472;2023-07-29T14:42:54;1.30;;;0.80;;
34035;SDS011;63481;52.588;22.472;2023-07-29T14:43:25;1.40;;;1.20;;
34035;SDS011;63481;52.588;22.472;2023-07-29T14:43:57;1.50;;;0.90;;
34035;SDS011;63481;52.588;22.472;2023-07-29T14:44:29;1.50;;;1.30;;
34035;SDS011;63481;52.588;22.472;2023-07-29T14:45:01;2.60;;;1.40;;
34035;SDS011;63481;52.588;22.472;2023-07-29T14:45:33;1.30;;;1.10;;
34035;SDS011;63481;52.588;22.472;2023-07-29T14:46:05;1.70;;;1.00;;
34035;SDS011;63481;52.588;22.472;2023-07-29T14:46:37;1.10;;;1.00;;
34035;SDS011;63481;52.588;22.472;2023-07-29T14:47:08;3.50;;;1.50;;
34035;SDS011;63481;52.588;22.472;2023-07-29T14:47:41;2.90;;;1.60;;
34035;SDS011;63481;52.588;22.472;2023-07-29T14:48:12;3.30;;;1.20;;
34035;SDS011;63481;52.588;22.472;2023-07-29T14:48:44;1.50;;;1.00;;
34035;SDS011;63481;52.588;22.472;2023-07-29T14:49:18;2.70;;;1.40;;
34035;SDS011;63481;52.588;22.472;2023-07-29T14:49:50;2.30;;;1.10;;
34035;SDS011;63481;52.588;22.472;2023-07-29T14:50:22;2.20;;;1.30;;
34035;SDS011;63481;52.588;22.472;2023-07-29T14:50:54;0.90;;;0.90;;
34035;SDS011;63481;52.588;22.472;2023-07-29T14:51:26;1.60;;;1.00;;
34035;SDS011;63481;52.588;22.472;2023-07-29T14:52:03;1.40;;;1.20;;
34035;SDS011;63481;52.588;22.472;2023-07-29T14:52:35;1.60;;;1.20;;
34035;SDS011;63481;52.588;22.472;2023-07-29T14:53:07;2.20;;;1.20;;
34035;SDS011;63481;52.588;22.472;2023-07-29T14:53:39;1.10;;;1.00;;
34035;SDS011;63481;52.588;22.472;2023-07-29T14:54:12;1.70;;;1.00;;
34035;SDS011;63481;52.588;22.472;2023-07-29T14:54:44;1.20;;;1.10;;
34035;SDS011;63481;52.588;22.472;2023-07-29T14:55:16;1.70;;;1.00;;
34035;SDS011;63481;52.588;22.472;2023-07-29T14:55:47;1.70;;;1.00;;
34035;SDS011;63481;52.588;22.472;2023-07-29T14:56:20;2.80;;;1.60;;
34035;SDS011;63481;52.588;22.472;2023-07-29T14:56:52;3.80;;;1.20;;
34035;SDS011;63481;52.588;22.472;2023-07-29T14:57:26;3.40;;;1.10;;
34035;SDS011;63481;52.588;22.472;2023-07-29T14:57:58;0.80;;;0.80;;
34035;SDS011;63481;52.588;22.472;2023-07-29T14:58:30;2.30;;;1.00;;
34035;SDS011;63481;52.588;22.472;2023-07-29T14:59:02;2.50;;;1.50;;
34035;SDS011;63481;52.588;22.472;2023-07-29T14:59:34;2.30;;;1.00;;
34035;SDS011;63481;52.588;22.472;2023-07-29T15:00:07;1.70;;;1.00;;
34035;SDS011;63481;52.588;22.472;2023-07-29T15:00:40;2.00;;;1.10;;
34035;SDS011;63481;52.588;22.472;2023-07-29T15:01:11;1.20;;;1.10;;
34035;SDS011;63481;52.588;22.472;2023-07-29T15:01:43;1.20;;;1.10;;
34035;SDS011;63481;52.588;22.472;2023-07-29T15:02:15;2.60;;;1.50;;
34035;SDS011;63481;52.588;22.472;2023-07-29T15:02:47;2.20;;;1.10;;
34035;SDS011;63481;52.588;22.472;2023-07-29T15:03:19;2.60;;;1.10;;
34035;SDS011;63481;52.588;22.472;2023-07-29T15:03:51;1.10;;;0.90;;
34035;SDS011;63481;52.588;22.472;2023-07-29T15:04:23;1.40;;;1.00;;
34035;SDS011;63481;52.588;22.472;2023-07-29T15:04:56;1.80;;;1.10;;
34035;SDS011;63481;52.588;22.472;2023-07-29T15:05:27;2.30;;;1.10;;
34035;SDS011;63481;52.588;22.472;2023-07-29T15:05:59;2.10;;;1.30;;
34035;SDS011;63481;52.588;22.472;2023-07-29T15:06:32;3.60;;;1.40;;
34035;SDS011;63481;52.588;22.472;2023-07-29T15:07:04;0.90;;;0.90;;
34035;SDS011;63481;52.588;22.472;2023-07-29T15:07:37;2.40;;;1.50;;
34035;SDS011;63481;52.588;22.472;2023-07-29T15:08:09;1.00;;;0.90;;
34035;SDS011;63481;52.588;22.472;2023-07-29T15:08:41;1.30;;;0.90;;
34035;SDS011;63481;52.588;22.472;2023-07-29T15:09:12;1.40;;;1.00;;
34035;SDS011;63481;52.588;22.472;2023-07-29T15:09:44;3.70;;;1.20;;
34035;SDS011;63481;52.588;22.472;2023-07-29T15:10:17;1.10;;;0.90;;
34035;SDS011;63481;52.588;22.472;2023-07-29T15:10:59;2.20;;;1.30;;
34035;SDS011;63481;52.588;22.472;2023-07-29T15:11:31;7.20;;;1.00;;
34035;SDS011;63481;52.588;22.472;2023-07-29T15:12:04;1.70;;;1.20;;
34035;SDS011;63481;52.588;22.472;2023-07-29T15:12:36;2.20;;;1.10;;
34035;SDS011;63481;52.588;22.472;2023-07-29T15:13:08;4.80;;;1.30;;
34035;SDS011;63481;52.588;22.472;2023-07-29T15:13:40;3.30;;;1.50;;
34035;SDS011;63481;52.588;22.472;2023-07-29T15:14:12;1.50;;;0.80;;
34035;SDS011;63481;52.588;22.472;2023-07-29T15:14:44;1.00;;;0.90;;
34035;SDS011;63481;52.588;22.472;2023-07-29T15:15:16;6.60;;;1.60;;
34035;SDS011;63481;52.588;22.472;2023-07-29T15:15:48;2.70;;;1.20;;
34035;SDS011;63481;52.588;22.472;2023-07-29T15:16:23;1.90;;;1.10;;
34035;SDS011;63481;52.588;22.472;2023-07-29T15:16:55;0.90;;;0.80;;
34035;SDS011;63481;52.588;22.472;2023-07-29T15:17:27;1.50;;;1.00;;
34035;SDS011;63481;52.588;22.472;2023-07-29T15:17:59;1.60;;;0.80;;
34035;SDS011;63481;52.588;22.472;2023-07-29T15:18:31;1.10;;;0.90;;
34035;SDS011;63481;52.588;22.472;2023-07-29T15:19:04;1.20;;;0.90;;
34035;SDS011;63481;52.588;22.472;2023-07-29T15:19:36;3.50;;;1.30;;
34035;SDS011;63481;52.588;22.472;2023-07-29T15:20:08;1.70;;;1.10;;
34035;SDS011;63481;52.588;22.472;2023-07-29T15:20:41;1.10;;;0.90;;
34035;SDS011;63481;52.588;22.472;2023-07-29T15:21:12;3.40;;;1.70;;
34035;SDS011;63481;52.588;22.472;2023-07-29T15:21:44;4.10;;;1.50;;
34035;SDS011;63481;52.588;22.472;2023-07-29T15:22:16;1.00;;;0.80;;
34035;SDS011;63481;52.588;22.472;2023-07-29T15:22:49;2.80;;;1.40;;
34035;SDS011;63481;52.588;22.472;2023-07-29T15:23:20;2.60;;;1.30;;
34035;SDS011;63481;52.588;22.472;2023-07-29T15:23:52;2.30;;;1.20;;
34035;SDS011;63481;52.588;22.472;2023-07-29T15:24:24;1.00;;;0.90;;
34035;SDS011;63481;52.588;22.472;2023-07-29T15:24:56;1.70;;;1.20;;
34035;SDS011;63481;52.588;22.472;2023-07-29T15:25:28;2.40;;;1.10;;
34035;SDS011;63481;52.588;22.472;2023-07-29T15:26:00;1.50;;;1.10;;
34035;SDS011;63481;52.588;22.472;2023-07-29T15:26:32;1.20;;;1.00;;
34035;SDS011;63481;52.588;22.472;2023-07-29T15:27:04;0.90;;;0.80;;
34035;SDS011;63481;52.588;22.472;2023-07-29T15:27:37;0.90;;;0.80;;
34035;SDS011;63481;52.588;22.472;2023-07-29T15:28:09;1.90;;;1.20;;
34035;SDS011;63481;52.588;22.472;2023-07-29T15:28:41;1.00;;;0.80;;
34035;SDS011;63481;52.588;22.472;2023-07-29T15:29:12;1.40;;;1.00;;
34035;SDS011;63481;52.588;22.472;2023-07-29T15:29:44;2.50;;;1.60;;
34035;SDS011;63481;52.588;22.472;2023-07-29T15:30:16;3.00;;;1.20;;
34035;SDS011;63481;52.588;22.472;2023-07-29T15:30:48;2.10;;;1.00;;
34035;SDS011;63481;52.588;22.472;2023-07-29T15:31:20;3.70;;;1.60;;
34035;SDS011;63481;52.588;22.472;2023-07-29T15:31:52;2.90;;;1.40;;
34035;SDS011;63481;52.588;22.472;2023-07-29T15:32:24;4.30;;;1.50;;
34035;SDS011;63481;52.588;22.472;2023-07-29T15:32:56;1.70;;;1.20;;
34035;SDS011;63481;52.588;22.472;2023-07-29T15:33:28;2.10;;;1.40;;
34035;SDS011;63481;52.588;22.472;2023-07-29T15:34:00;1.50;;;1.00;;
34035;SDS011;63481;52.588;22.472;2023-07-29T15:34:32;1.80;;;1.00;;
34035;SDS011;63481;52.588;22.472;2023-07-29T15:35:04;3.10;;;1.60;;
34035;SDS011;63481;52.588;22.472;2023-07-29T15:35:38;1.10;;;0.80;;
34035;SDS011;63481;52.588;22.472;2023-07-29T15:36:11;1.10;;;0.90;;
34035;SDS011;63481;52.588;22.472;2023-07-29T15:36:42;0.90;;;0.80;;
34035;SDS011;63481;52.588;22.472;2023-07-29T15:37:14;1.00;;;0.90;;
34035;SDS011;63481;52.588;22.472;2023-07-29T15:37:47;2.00;;;0.90;;
34035;SDS011;63481;52.588;22.472;2023-07-29T15:38:19;2.30;;;1.40;;
34035;SDS011;63481;52.588;22.472;2023-07-29T15:38:51;3.00;;;1.40;;
34035;SDS011;63481;52.588;22.472;2023-07-29T15:39:22;3.10;;;1.60;;
34035;SDS011;63481;52.588;22.472;2023-07-29T15:39:54;1.40;;;1.10;;
34035;SDS011;63481;52.588;22.472;2023-07-29T15:40:26;6.80;;;3.50;;
34035;SDS011;63481;52.588;22.472;2023-07-29T15:40:59;3.50;;;1.50;;
34035;SDS011;63481;52.588;22.472;2023-07-29T15:41:34;2.20;;;1.30;;
34035;SDS011;63481;52.588;22.472;2023-07-29T15:42:06;2.30;;;1.30;;
34035;SDS011;63481;52.588;22.472;2023-07-29T15:42:38;1.70;;;1.00;;
34035;SDS011;63481;52.588;22.472;2023-07-29T15:43:10;0.70;;;0.70;;
34035;SDS011;63481;52.588;22.472;2023-07-29T15:43:42;1.70;;;1.20;;
34035;SDS011;63481;52.588;22.472;2023-07-29T15:44:13;0.90;;;0.90;;
34035;SDS011;63481;52.588;22.472;2023-07-29T15:44:45;2.10;;;1.40;;
34035;SDS011;63481;52.588;22.472;2023-07-29T15:45:17;0.80;;;0.80;;
34035;SDS011;63481;52.588;22.472;2023-07-29T15:45:49;2.10;;;0.90;;
34035;SDS011;63481;52.588;22.472;2023-07-29T15:46:21;2.40;;;1.20;;
34035;SDS011;63481;52.588;22.472;2023-07-29T15:46:53;2.30;;;1.30;;
34035;SDS011;63481;52.588;22.472;2023-07-29T15:47:27;1.10;;;1.00;;
34035;SDS011;63481;52.588;22.472;2023-07-29T15:47:58;1.40;;;1.10;;
34035;SDS011;63481;52.588;22.472;2023-07-29T15:48:30;1.90;;;1.30;;
34035;SDS011;63481;52.588;22.472;2023-07-29T15:49:03;2.50;;;1.20;;
34035;SDS011;63481;52.588;22.472;2023-07-29T15:49:34;3.00;;;1.30;;
34035;SDS011;63481;52.588;22.472;2023-07-29T15:50:06;5.50;;;1.60;;
34035;SDS011;63481;52.588;22.472;2023-07-29T15:50:39;2.30;;;1.10;;
34035;SDS011;63481;52.588;22.472;2023-07-29T15:51:11;1.10;;;0.90;;
34035;SDS011;63481;52.588;22.472;2023-07-29T15:51:43;1.90;;;1.00;;
34035;SDS011;63481;52.588;22.472;2023-07-29T15:52:15;1.30;;;0.90;;
34035;SDS011;63481;52.588;22.472;2023-07-29T15:52:46;2.60;;;1.60;;
34035;SDS011;63481;52.588;22.472;2023-07-29T15:53:18;8.70;;;2.00;;
34035;SDS011;63481;52.588;22.472;2023-07-29T15:53:50;3.20;;;1.10;;
34035;SDS011;63481;52.588;22.472;2023-07-29T15:54:23;1.30;;;0.80;;
34035;SDS011;63481;52.588;22.472;2023-07-29T15:54:54;2.30;;;1.30;;
34035;SDS011;63481;52.588;22.472;2023-07-29T15:55:26;1.70;;;1.00;;
34035;SDS011;63481;52.588;22.472;2023-07-29T15:55:58;2.60;;;1.10;;
34035;SDS011;63481;52.588;22.472;2023-07-29T15:56:30;6.00;;;1.10;;
34035;SDS011;63481;52.588;22.472;2023-07-29T15:57:02;3.30;;;1.20;;
34035;SDS011;63481;52.588;22.472;2023-07-29T15:57:34;2.10;;;1.40;;
34035;SDS011;63481;52.588;22.472;2023-07-29T15:58:06;5.00;;;1.20;;
34035;SDS011;63481;52.588;22.472;2023-07-29T15:58:38;1.50;;;0.80;;
34035;SDS011;63481;52.588;22.472;2023-07-29T15:59:10;1.10;;;0.90;;
34035;SDS011;63481;52.588;22.472;2023-07-29T15:59:42;1.90;;;1.30;;
34035;SDS011;63481;52.588;22.472;2023-07-29T16:00:14;1.20;;;1.00;;
34035;SDS011;63481;52.588;22.472;2023-07-29T16:00:46;3.70;;;1.30;;
34035;SDS011;63481;52.588;22.472;2023-07-29T16:01:18;1.70;;;1.20;;
34035;SDS011;63481;52.588;22.472;2023-07-29T16:01:50;1.40;;;1.00;;
34035;SDS011;63481;52.588;22.472;2023-07-29T16:02:22;1.60;;;1.10;;
34035;SDS011;63481;52.588;22.472;2023-07-29T16:02:54;2.80;;;1.20;;
34035;SDS011;63481;52.588;22.472;2023-07-29T16:03:26;2.00;;;1.30;;
34035;SDS011;63481;52.588;22.472;2023-07-29T16:03:58;2.90;;;1.60;;
34035;SDS011;63481;52.588;22.472;2023-07-29T16:04:30;2.50;;;1.10;;
34035;SDS011;63481;52.588;22.472;2023-07-29T16:05:02;0.90;;;0.80;;
34035;SDS011;63481;52.588;22.472;2023-07-29T16:05:34;2.60;;;1.40;;
34035;SDS011;63481;52.588;22.472;2023-07-29T16:06:06;1.30;;;1.00;;
34035;SDS011;63481;52.588;22.472;2023-07-29T16:06:38;1.90;;;1.20;;
34035;SDS011;63481;52.588;22.472;2023-07-29T16:07:10;5.30;;;1.30;;
34035;SDS011;63481;52.588;22.472;2023-07-29T16:07:42;3.30;;;1.60;;
34035;SDS011;63481;52.588;22.472;2023-07-29T16:08:14;2.90;;;1.30;;
34035;SDS011;63481;52.588;22.472;2023-07-29T16:08:46;2.10;;;1.30;;
34035;SDS011;63481;52.588;22.472;2023-07-29T16:09:19;9.00;;;1.10;;
34035;SDS011;63481;52.588;22.472;2023-07-29T16:09:52;2.10;;;1.10;;
34035;SDS011;63481;52.588;22.472;2023-07-29T16:10:24;5.10;;;1.40;;
34035;SDS011;63481;52.588;22.472;2023-07-29T16:10:56;1.50;;;0.90;;
34035;SDS011;63481;52.588;22.472;2023-07-29T16:11:28;5.90;;;1.30;;
34035;SDS011;63481;52.588;22.472;2023-07-29T16:12:00;1.40;;;1.10;;
34035;SDS011;63481;52.588;22.472;2023-07-29T16:12:33;4.50;;;1.40;;
34035;SDS011;63481;52.588;22.472;2023-07-29T16:13:07;3.30;;;1.40;;
34035;SDS011;63481;52.588;22.472;2023-07-29T16:13:39;1.90;;;1.20;;
34035;SDS011;63481;52.588;22.472;2023-07-29T16:14:11;3.20;;;1.30;;
34035;SDS011;63481;52.588;22.472;2023-07-29T16:14:43;1.60;;;1.20;;
34035;SDS011;63481;52.588;22.472;2023-07-29T16:15:15;3.20;;;1.20;;
34035;SDS011;63481;52.588;22.472;2023-07-29T16:15:46;2.00;;;1.30;;
34035;SDS011;63481;52.588;22.472;2023-07-29T16:16:18;1.70;;;1.00;;
34035;SDS011;63481;52.588;22.472;2023-07-29T16:16:50;1.20;;;1.10;;
34035;SDS011;63481;52.588;22.472;2023-07-29T16:17:22;1.70;;;1.20;;
34035;SDS011;63481;52.588;22.472;2023-07-29T16:17:54;1.70;;;1.20;;
34035;SDS011;63481;52.588;22.472;2023-07-29T16:18:26;1.40;;;1.20;;
34035;SDS011;63481;52.588;22.472;2023-07-29T16:18:58;2.80;;;1.10;;
34035;SDS011;63481;52.588;22.472;2023-07-29T16:19:30;2.20;;;1.20;;
34035;SDS011;63481;52.588;22.472;2023-07-29T16:20:02;1.40;;;1.20;;
34035;SDS011;63481;52.588;22.472;2023-07-29T16:20:35;2.40;;;1.40;;
34035;SDS011;63481;52.588;22.472;2023-07-29T16:21:07;1.80;;;1.20;;
34035;SDS011;63481;52.588;22.472;2023-07-29T16:21:39;2.30;;;1.30;;
34035;SDS011;63481;52.588;22.472;2023-07-29T16:22:11;3.30;;;1.20;;
34035;SDS011;63481;52.588;22.472;2023-07-29T16:22:42;2.70;;;1.40;;
34035;SDS011;63481;52.588;22.472;2023-07-29T16:23:14;10.30;;;1.60;;
34035;SDS011;63481;52.588;22.472;2023-07-29T16:23:46;3.70;;;1.50;;
34035;SDS011;63481;52.588;22.472;2023-07-29T16:24:23;2.10;;;1.40;;
34035;SDS011;63481;52.588;22.472;2023-07-29T16:24:55;1.60;;;1.10;;
34035;SDS011;63481;52.588;22.472;2023-07-29T16:25:27;2.20;;;1.20;;
34035;SDS011;63481;52.588;22.472;2023-07-29T16:26:00;1.60;;;1.20;;
34035;SDS011;63481;52.588;22.472;2023-07-29T16:26:32;1.20;;;1.10;;
34035;SDS011;63481;52.588;22.472;2023-07-29T16:27:04;1.70;;;1.20;;
34035;SDS011;63481;52.588;22.472;2023-07-29T16:27:36;3.40;;;1.20;;
34035;SDS011;63481;52.588;22.472;2023-07-29T16:28:08;1.40;;;1.00;;
34035;SDS011;63481;52.588;22.472;2023-07-29T16:28:40;2.60;;;1.30;;
34035;SDS011;63481;52.588;22.472;2023-07-29T16:29:12;2.60;;;1.60;;
34035;SDS011;63481;52.588;22.472;2023-07-29T16:29:44;1.60;;;1.20;;
34035;SDS011;63481;52.588;22.472;2023-07-29T16:30:16;2.40;;;1.30;;
34035;SDS011;63481;52.588;22.472;2023-07-29T16:30:48;1.40;;;1.10;;
34035;SDS011;63481;52.588;22.472;2023-07-29T16:31:20;2.90;;;1.40;;
34035;SDS011;63481;52.588;22.472;2023-07-29T16:31:53;1.40;;;1.00;;
34035;SDS011;63481;52.588;22.472;2023-07-29T16:32:25;4.60;;;1.30;;
34035;SDS011;63481;52.588;22.472;2023-07-29T16:32:57;2.90;;;1.20;;
34035;SDS011;63481;52.588;22.472;2023-07-29T16:33:29;2.10;;;1.30;;
34035;SDS011;63481;52.588;22.472;2023-07-29T16:34:00;3.70;;;1.30;;
34035;SDS011;63481;52.588;22.472;2023-07-29T16:34:32;1.20;;;0.90;;
34035;SDS011;63481;52.588;22.472;2023-07-29T16:35:04;3.10;;;1.20;;
34035;SDS011;63481;52.588;22.472;2023-07-29T16:35:37;1.50;;;1.20;;
34035;SDS011;63481;52.588;22.472;2023-07-29T16:36:09;1.20;;;0.90;;
34035;SDS011;63481;52.588;22.472;2023-07-29T16:36:41;7.40;;;1.90;;
34035;SDS011;63481;52.588;22.472;2023-07-29T16:37:12;1.20;;;1.00;;
34035;SDS011;63481;52.588;22.472;2023-07-29T16:37:44;1.60;;;1.00;;
34035;SDS011;63481;52.588;22.472;2023-07-29T16:38:16;1.90;;;1.30;;
34035;SDS011;63481;52.588;22.472;2023-07-29T16:38:48;1.60;;;1.30;;
34035;SDS011;63481;52.588;22.472;2023-07-29T16:39:20;1.50;;;1.10;;
34035;SDS011;63481;52.588;22.472;2023-07-29T16:39:52;2.40;;;1.30;;
34035;SDS011;63481;52.588;22.472;2023-07-29T16:40:24;2.80;;;1.30;;
34035;SDS011;63481;52.588;22.472;2023-07-29T16:40:56;2.00;;;1.30;;
34035;SDS011;63481;52.588;22.472;2023-07-29T16:41:27;1.10;;;0.90;;
34035;SDS011;63481;52.588;22.472;2023-07-29T16:41:59;1.30;;;1.10;;
34035;SDS011;63481;52.588;22.472;2023-07-29T16:42:31;2.20;;;1.50;;
34035;SDS011;63481;52.588;22.472;2023-07-29T16:43:03;2.30;;;1.60;;
34035;SDS011;63481;52.588;22.472;2023-07-29T16:43:35;3.60;;;1.70;;
34035;SDS011;63481;52.588;22.472;2023-07-29T16:44:07;2.60;;;1.10;;
34035;SDS011;63481;52.588;22.472;2023-07-29T16:44:39;2.10;;;1.20;;
34035;SDS011;63481;52.588;22.472;2023-07-29T16:45:12;2.60;;;1.40;;
34035;SDS011;63481;52.588;22.472;2023-07-29T16:45:44;2.20;;;1.00;;
34035;SDS011;63481;52.588;22.472;2023-07-29T16:46:15;3.70;;;1.50;;
34035;SDS011;63481;52.588;22.472;2023-07-29T16:46:47;2.00;;;1.50;;
34035;SDS011;63481;52.588;22.472;2023-07-29T16:47:19;2.40;;;1.60;;
34035;SDS011;63481;52.588;22.472;2023-07-29T16:47:51;5.20;;;1.90;;
34035;SDS011;63481;52.588;22.472;2023-07-29T16:48:23;1.90;;;1.40;;
34035;SDS011;63481;52.588;22.472;2023-07-29T16:48:55;3.20;;;1.50;;
34035;SDS011;63481;52.588;22.472;2023-07-29T16:49:27;1.90;;;1.30;;
34035;SDS011;63481;52.588;22.472;2023-07-29T16:49:59;3.50;;;1.60;;
34035;SDS011;63481;52.588;22.472;2023-07-29T16:50:31;2.40;;;1.30;;
34035;SDS011;63481;52.588;22.472;2023-07-29T16:51:03;2.40;;;1.20;;
34035;SDS011;63481;52.588;22.472;2023-07-29T16:51:35;3.70;;;1.70;;
34035;SDS011;63481;52.588;22.472;2023-07-29T16:52:07;1.30;;;1.10;;
34035;SDS011;63481;52.588;22.472;2023-07-29T16:52:39;3.30;;;1.40;;
34035;SDS011;63481;52.588;22.472;2023-07-29T16:53:11;6.40;;;1.70;;
34035;SDS011;63481;52.588;22.472;2023-07-29T16:53:42;2.10;;;1.40;;
34035;SDS011;63481;52.588;22.472;2023-07-29T16:54:15;1.70;;;1.00;;
34035;SDS011;63481;52.588;22.472;2023-07-29T16:54:49;2.20;;;1.30;;
34035;SDS011;63481;52.588;22.472;2023-07-29T16:55:21;1.40;;;1.10;;
34035;SDS011;63481;52.588;22.472;2023-07-29T16:55:53;2.10;;;1.50;;
34035;SDS011;63481;52.588;22.472;2023-07-29T16:56:24;2.90;;;1.40;;
34035;SDS011;63481;52.588;22.472;2023-07-29T16:56:56;7.10;;;1.60;;
34035;SDS011;63481;52.588;22.472;2023-07-29T16:57:28;2.90;;;1.60;;
34035;SDS011;63481;52.588;22.472;2023-07-29T16:58:00;2.20;;;1.40;;
34035;SDS011;63481;52.588;22.472;2023-07-29T16:58:32;3.50;;;1.30;;
34035;SDS011;63481;52.588;22.472;2023-07-29T16:59:04;1.70;;;1.20;;
34035;SDS011;63481;52.588;22.472;2023-07-29T16:59:36;1.10;;;1.00;;
34035;SDS011;63481;52.588;22.472;2023-07-29T17:00:08;2.20;;;1.30;;
34035;SDS011;63481;52.588;22.472;2023-07-29T17:00:40;2.90;;;1.30;;
34035;SDS011;63481;52.588;22.472;2023-07-29T17:01:12;2.00;;;1.20;;
34035;SDS011;63481;52.588;22.472;2023-07-29T17:01:44;2.70;;;1.20;;
34035;SDS011;63481;52.588;22.472;2023-07-29T17:02:15;14.70;;;1.60;;
34035;SDS011;63481;52.588;22.472;2023-07-29T17:02:47;2.10;;;1.30;;
34035;SDS011;63481;52.588;22.472;2023-07-29T17:03:19;1.80;;;1.20;;
34035;SDS011;63481;52.588;22.472;2023-07-29T17:03:51;6.80;;;1.60;;
34035;SDS011;63481;52.588;22.472;2023-07-29T17:04:23;4.40;;;1.80;;
34035;SDS011;63481;52.588;22.472;2023-07-29T17:04:55;1.40;;;1.30;;
34035;SDS011;63481;52.588;22.472;2023-07-29T17:05:27;5.30;;;1.80;;
34035;SDS011;63481;52.588;22.472;2023-07-29T17:05:59;5.00;;;1.50;;
34035;SDS011;63481;52.588;22.472;2023-07-29T17:06:31;3.30;;;1.60;;
34035;SDS011;63481;52.588;22.472;2023-07-29T17:07:03;2.10;;;1.40;;
34035;SDS011;63481;52.588;22.472;2023-07-29T17:07:35;1.70;;;1.10;;
34035;SDS011;63481;52.588;22.472;2023-07-29T17:08:07;2.40;;;1.40;;
34035;SDS011;63481;52.588;22.472;2023-07-29T17:08:38;3.90;;;1.50;;
34035;SDS011;63481;52.588;22.472;2023-07-29T17:09:10;1.90;;;1.00;;
34035;SDS011;63481;52.588;22.472;2023-07-29T17:09:42;5.10;;;1.60;;
34035;SDS011;63481;52.588;22.472;2023-07-29T17:10:17;1.70;;;1.00;;
34035;SDS011;63481;52.588;22.472;2023-07-29T17:10:49;5.30;;;1.50;;
34035;SDS011;63481;52.588;22.472;2023-07-29T17:11:21;2.10;;;1.60;;
34035;SDS011;63481;52.588;22.472;2023-07-29T17:11:53;3.90;;;1.60;;
34035;SDS011;63481;52.588;22.472;2023-07-29T17:12:26;1.90;;;1.20;;
34035;SDS011;63481;52.588;22.472;2023-07-29T17:12:58;2.10;;;1.30;;
34035;SDS011;63481;52.588;22.472;2023-07-29T17:13:30;1.90;;;1.50;;
34035;SDS011;63481;52.588;22.472;2023-07-29T17:14:02;3.90;;;1.70;;
34035;SDS011;63481;52.588;22.472;2023-07-29T17:14:34;2.60;;;1.30;;
34035;SDS011;63481;52.588;22.472;2023-07-29T17:15:06;5.30;;;1.40;;
34035;SDS011;63481;52.588;22.472;2023-07-29T17:15:39;2.90;;;1.30;;
34035;SDS011;63481;52.588;22.472;2023-07-29T17:16:11;3.20;;;1.30;;
34035;SDS011;63481;52.588;22.472;2023-07-29T17:16:43;2.80;;;1.40;;
34035;SDS011;63481;52.588;22.472;2023-07-29T17:17:15;4.30;;;1.80;;
34035;SDS011;63481;52.588;22.472;2023-07-29T17:17:47;3.40;;;1.50;;
34035;SDS011;63481;52.588;22.472;2023-07-29T17:18:19;3.20;;;1.40;;
34035;SDS011;63481;52.588;22.472;2023-07-29T17:18:50;1.40;;;0.90;;
34035;SDS011;63481;52.588;22.472;2023-07-29T17:19:22;2.50;;;1.50;;
34035;SDS011;63481;52.588;22.472;2023-07-29T17:19:54;1.70;;;1.10;;
34035;SDS011;63481;52.588;22.472;2023-07-29T17:20:26;3.50;;;1.50;;
34035;SDS011;63481;52.588;22.472;2023-07-29T17:20:59;2.30;;;1.40;;
34035;SDS011;63481;52.588;22.472;2023-07-29T17:21:31;3.50;;;1.10;;
34035;SDS011;63481;52.588;22.472;2023-07-29T17:22:03;3.40;;;1.90;;
34035;SDS011;63481;52.588;22.472;2023-07-29T17:22:35;6.80;;;1.80;;
34035;SDS011;63481;52.588;22.472;2023-07-29T17:23:09;1.70;;;1.20;;
34035;SDS011;63481;52.588;22.472;2023-07-29T17:23:40;18.10;;;1.60;;
34035;SDS011;63481;52.588;22.472;2023-07-29T17:24:12;3.80;;;1.90;;
34035;SDS011;63481;52.588;22.472;2023-07-29T17:24:44;7.60;;;1.20;;
34035;SDS011;63481;52.588;22.472;2023-07-29T17:25:16;3.60;;;1.80;;
34035;SDS011;63481;52.588;22.472;2023-07-29T17:25:48;1.70;;;1.10;;
34035;SDS011;63481;52.588;22.472;2023-07-29T17:26:20;2.10;;;1.40;;
34035;SDS011;63481;52.588;22.472;2023-07-29T17:26:52;1.50;;;1.30;;